createdAt,value
2022-10-10T00:12:04.653Z,100
2022-10-10T00:27:06.492Z,80
2022-10-10T00:42:08.312Z,60
2022-10-10T00:57:10.138Z,40
2022-10-10T01:12:11.982Z,40
2022-10-10T01:27:13.799Z,30
2022-10-10T01:42:15.659Z,30
2022-10-10T01:57:17.501Z,20
2022-10-10T02:12:19.365Z,0
2022-10-10T02:27:21.206Z,0
2022-10-10T02:42:23.047Z,0
2022-10-10T02:57:24.919Z,0
2022-10-10T03:12:26.760Z,0
2022-10-10T03:27:28.593Z,0
2022-10-10T03:42:30.453Z,0
2022-10-10T03:57:32.287Z,0
2022-10-10T04:12:34.144Z,0
2022-10-10T04:27:36.016Z,0
2022-10-10T04:42:37.847Z,0
2022-10-10T04:57:39.656Z,0
2022-10-10T05:12:41.497Z,0
2022-10-10T05:27:43.354Z,0
2022-10-10T05:42:45.185Z,0
2022-10-10T05:57:47.031Z,0
2022-10-10T06:12:49.280Z,0
2022-10-10T06:27:51.390Z,0
2022-10-10T06:42:53.596Z,0
2022-10-10T06:57:55.692Z,0
2022-10-10T07:12:57.680Z,0
2022-10-10T07:27:59.673Z,0
2022-10-10T07:43:01.527Z,0
2022-10-10T07:58:03.362Z,0
2022-10-10T08:13:05.211Z,0
2022-10-10T08:28:07.122Z,0
2022-10-10T08:43:09.049Z,0
2022-10-10T08:58:10.898Z,0
2022-10-10T09:13:12.746Z,0
2022-10-10T09:28:14.611Z,0
2022-10-10T09:43:16.509Z,0
2022-10-10T09:58:18.366Z,0
2022-10-10T10:13:20.215Z,0
2022-10-10T10:28:22.155Z,0
2022-10-10T10:43:24.026Z,0
2022-10-10T10:59:16.694Z,0
2022-10-10T11:14:37.999Z,0
2022-10-10T11:29:39.862Z,0
2022-10-10T11:44:41.699Z,0
2022-10-10T11:59:43.569Z,0
2022-10-10T12:14:45.394Z,0
2022-10-10T12:29:50.876Z,0
2022-10-10T12:44:53.240Z,0
2022-10-10T12:59:58.669Z,0
2022-10-10T13:15:03.054Z,0
2022-10-10T13:30:04.904Z,0
2022-10-10T13:45:06.739Z,0
2022-10-10T14:00:08.551Z,0
2022-10-10T14:15:10.384Z,10
2022-10-10T14:30:12.243Z,20
2022-10-10T14:45:14.087Z,20
2022-10-10T15:00:15.906Z,20
2022-10-10T15:15:17.772Z,30
2022-10-10T15:30:19.651Z,40
2022-10-10T15:45:50.955Z,80
2022-10-10T16:00:56.663Z,120
2022-10-10T16:15:58.520Z,130
2022-10-10T16:31:00.872Z,120
2022-10-10T16:46:02.966Z,120
2022-10-10T17:01:06.258Z,130
2022-10-10T17:16:40.493Z,120
2022-10-10T17:31:55.150Z,140
2022-10-10T17:46:57.005Z,130
2022-10-10T18:01:58.838Z,70
2022-10-10T18:17:00.686Z,50
2022-10-10T18:32:02.544Z,90
2022-10-10T18:47:04.381Z,80
2022-10-10T19:02:06.188Z,80
2022-10-10T19:17:08.045Z,80
2022-10-10T19:32:09.906Z,110
2022-10-10T19:47:11.726Z,110
2022-10-10T20:02:13.555Z,110
2022-10-10T20:17:15.386Z,110
2022-10-10T20:32:17.220Z,120
2022-10-10T20:47:19.055Z,120
2022-10-10T21:02:20.900Z,130
2022-10-10T21:17:22.735Z,110
2022-10-10T21:32:24.602Z,90
2022-10-10T21:47:26.446Z,100
2022-10-10T22:02:28.355Z,120
2022-10-10T22:17:30.238Z,140
2022-10-10T22:32:32.092Z,120
2022-10-10T22:47:33.911Z,80
2022-10-10T23:02:35.766Z,110
2022-10-10T23:17:37.621Z,100
2022-10-10T23:32:39.445Z,90
2022-10-10T23:47:41.293Z,70
